Terminal Aerodrome Forecast
Issued by NWS

Home | Current Version | Previous Version | Text Only | Print | Product List | Glossary On
Versions: 1 2 3 4 5 6 7 8 9 10 11 12
083
FTUS45 KVEF 272320
TAFBIH
TAF
KBIH 272320Z 2800/2824 16007KT P6SM FEW120
     FM280700 31006KT P6SM SKC
     FM281500 VRB06KT P6SM SKC
     FM281900 17010KT P6SM FEW120=

USA.gov is the U.S. government's official web portal to all federal, state and local government web resources and services.